sensor_id;sensor_type;location;lat;lon;timestamp;pressure;altitude;pressure_sealevel;temperature;humidity
69909;BME280;57190;47.918;8.112;2022-12-24T00:01:10;90508.78;;;6.42;79.23
69909;BME280;57190;47.918;8.112;2022-12-24T00:03:45;90503.94;;;6.34;79.09
69909;BME280;57190;47.918;8.112;2022-12-24T00:06:21;90490.19;;;6.37;78.60
69909;BME280;57190;47.918;8.112;2022-12-24T00:08:47;90496.00;;;6.34;78.37
69909;BME280;57190;47.918;8.112;2022-12-24T00:11:13;90495.47;;;6.37;77.72
69909;BME280;57190;47.918;8.112;2022-12-24T00:13:39;90499.19;;;6.36;78.01
69909;BME280;57190;47.918;8.112;2022-12-24T00:16:05;90510.34;;;6.38;77.70
69909;BME280;57190;47.918;8.112;2022-12-24T00:18:30;90505.03;;;6.38;78.02
69909;BME280;57190;47.918;8.112;2022-12-24T00:20:56;90506.75;;;6.49;77.00
69909;BME280;57190;47.918;8.112;2022-12-24T00:23:22;90506.00;;;6.54;75.86
69909;BME280;57190;47.918;8.112;2022-12-24T00:25:48;90499.38;;;6.56;76.22
69909;BME280;57190;47.918;8.112;2022-12-24T00:28:14;90495.22;;;6.66;75.83
69909;BME280;57190;47.918;8.112;2022-12-24T00:30:41;90501.06;;;6.68;75.38
69909;BME280;57190;47.918;8.112;2022-12-24T00:33:07;90495.00;;;6.72;75.57
69909;BME280;57190;47.918;8.112;2022-12-24T00:35:36;90504.03;;;6.71;76.28
69909;BME280;57190;47.918;8.112;2022-12-24T00:38:03;90500.22;;;6.62;76.67
69909;BME280;57190;47.918;8.112;2022-12-24T00:40:29;90502.06;;;6.61;76.66
69909;BME280;57190;47.918;8.112;2022-12-24T00:42:55;90509.72;;;6.58;77.08
69909;BME280;57190;47.918;8.112;2022-12-24T00:45:20;90512.56;;;6.51;77.95
69909;BME280;57190;47.918;8.112;2022-12-24T00:47:46;90529.22;;;6.47;78.85
69909;BME280;57190;47.918;8.112;2022-12-24T00:50:11;90524.47;;;6.49;78.55
69909;BME280;57190;47.918;8.112;2022-12-24T00:52:37;90516.88;;;6.57;77.43
69909;BME280;57190;47.918;8.112;2022-12-24T00:55:02;90531.69;;;6.53;77.44
69909;BME280;57190;47.918;8.112;2022-12-24T00:57:28;90526.38;;;6.53;78.01
69909;BME280;57190;47.918;8.112;2022-12-24T00:59:54;90521.66;;;6.60;77.78
69909;BME280;57190;47.918;8.112;2022-12-24T01:02:19;90527.03;;;6.66;76.40
69909;BME280;57190;47.918;8.112;2022-12-24T01:04:45;90531.88;;;6.74;76.30
69909;BME280;57190;47.918;8.112;2022-12-24T01:07:29;90532.72;;;6.80;75.41
69909;BME280;57190;47.918;8.112;2022-12-24T01:09:54;90526.63;;;6.84;75.11
69909;BME280;57190;47.918;8.112;2022-12-24T01:12:20;90524.22;;;6.78;75.64
69909;BME280;57190;47.918;8.112;2022-12-24T01:14:45;90519.69;;;6.78;76.04
69909;BME280;57190;47.918;8.112;2022-12-24T01:17:11;90522.88;;;6.75;75.80
69909;BME280;57190;47.918;8.112;2022-12-24T01:19:36;90532.66;;;6.74;76.55
69909;BME280;57190;47.918;8.112;2022-12-24T01:22:02;90541.13;;;6.71;75.88
69909;BME280;57190;47.918;8.112;2022-12-24T01:24:27;90544.09;;;6.75;75.73
69909;BME280;57190;47.918;8.112;2022-12-24T01:26:53;90550.72;;;6.78;75.67
69909;BME280;57190;47.918;8.112;2022-12-24T01:29:18;90558.63;;;6.72;76.33
69909;BME280;57190;47.918;8.112;2022-12-24T01:31:44;90562.09;;;6.73;77.16
69909;BME280;57190;47.918;8.112;2022-12-24T01:34:09;90567.88;;;6.70;77.55
69909;BME280;57190;47.918;8.112;2022-12-24T01:36:35;90560.16;;;6.63;77.23
69909;BME280;57190;47.918;8.112;2022-12-24T01:39:00;90555.19;;;6.72;76.57
69909;BME280;57190;47.918;8.112;2022-12-24T01:41:26;90574.22;;;6.69;77.76
69909;BME280;57190;47.918;8.112;2022-12-24T01:44:31;90564.63;;;6.63;77.36
69909;BME280;57190;47.918;8.112;2022-12-24T01:47:39;90568.41;;;6.67;77.51
69909;BME280;57190;47.918;8.112;2022-12-24T01:49:51;90564.44;;;6.69;77.30
69909;BME280;57190;47.918;8.112;2022-12-24T01:52:24;90568.09;;;6.63;78.31
69909;BME280;57190;47.918;8.112;2022-12-24T01:55:07;90559.31;;;6.63;77.51
69909;BME280;57190;47.918;8.112;2022-12-24T01:57:39;90551.38;;;6.63;77.81
69909;BME280;57190;47.918;8.112;2022-12-24T02:00:08;90562.00;;;6.68;77.09
69909;BME280;57190;47.918;8.112;2022-12-24T02:02:36;90561.41;;;6.60;77.75
69909;BME280;57190;47.918;8.112;2022-12-24T02:07:28;90572.28;;;6.59;77.42
69909;BME280;57190;47.918;8.112;2022-12-24T02:09:57;90575.50;;;6.61;77.52
69909;BME280;57190;47.918;8.112;2022-12-24T02:12:24;90572.03;;;6.60;78.00
69909;BME280;57190;47.918;8.112;2022-12-24T02:14:50;90563.03;;;6.61;76.96
69909;BME280;57190;47.918;8.112;2022-12-24T02:17:22;90569.66;;;6.64;76.78
69909;BME280;57190;47.918;8.112;2022-12-24T02:30:27;90590.50;;;6.50;77.06
69909;BME280;57190;47.918;8.112;2022-12-24T02:35:53;90576.91;;;6.47;77.47
69909;BME280;57190;47.918;8.112;2022-12-24T02:38:26;90579.81;;;6.45;77.39
69909;BME280;57190;47.918;8.112;2022-12-24T02:41:01;90590.16;;;6.47;76.77
69909;BME280;57190;47.918;8.112;2022-12-24T02:43:33;90596.75;;;6.44;77.62
69909;BME280;57190;47.918;8.112;2022-12-24T02:46:04;90610.25;;;6.42;77.51
69909;BME280;57190;47.918;8.112;2022-12-24T02:48:31;90601.53;;;6.42;77.20
69909;BME280;57190;47.918;8.112;2022-12-24T02:51:06;90600.09;;;6.34;78.43
69909;BME280;57190;47.918;8.112;2022-12-24T02:53:32;90605.28;;;6.24;78.85
69909;BME280;57190;47.918;8.112;2022-12-24T03:01:37;90585.88;;;6.18;77.56
69909;BME280;57190;47.918;8.112;2022-12-24T03:07:06;90600.66;;;6.14;76.72
69909;BME280;57190;47.918;8.112;2022-12-24T03:09:38;90599.31;;;6.11;76.48
69909;BME280;57190;47.918;8.112;2022-12-24T03:12:17;90606.88;;;6.03;76.68
69909;BME280;57190;47.918;8.112;2022-12-24T03:14:47;90610.44;;;5.91;77.44
69909;BME280;57190;47.918;8.112;2022-12-24T03:17:14;90614.84;;;5.86;77.15
69909;BME280;57190;47.918;8.112;2022-12-24T03:19:40;90626.22;;;5.86;77.43
69909;BME280;57190;47.918;8.112;2022-12-24T03:22:08;90622.94;;;5.79;78.00
69909;BME280;57190;47.918;8.112;2022-12-24T03:24:34;90631.47;;;5.81;77.19
69909;BME280;57190;47.918;8.112;2022-12-24T03:27:01;90637.38;;;5.71;77.47
69909;BME280;57190;47.918;8.112;2022-12-24T03:29:28;90630.22;;;5.66;77.26
69909;BME280;57190;47.918;8.112;2022-12-24T03:32:00;90626.91;;;5.59;77.22
69909;BME280;57190;47.918;8.112;2022-12-24T03:34:25;90635.34;;;5.56;77.33
69909;BME280;57190;47.918;8.112;2022-12-24T03:36:51;90630.78;;;5.51;76.72
69909;BME280;57190;47.918;8.112;2022-12-24T03:39:17;90623.63;;;5.52;77.43
69909;BME280;57190;47.918;8.112;2022-12-24T03:41:42;90628.59;;;5.65;75.66
69909;BME280;57190;47.918;8.112;2022-12-24T03:44:08;90633.69;;;5.72;74.33
69909;BME280;57190;47.918;8.112;2022-12-24T03:46:33;90645.16;;;5.78;74.07
69909;BME280;57190;47.918;8.112;2022-12-24T03:48:59;90650.78;;;5.81;73.56
69909;BME280;57190;47.918;8.112;2022-12-24T03:51:25;90638.34;;;5.82;73.99
69909;BME280;57190;47.918;8.112;2022-12-24T03:53:52;90648.38;;;5.80;73.24
69909;BME280;57190;47.918;8.112;2022-12-24T03:56:17;90649.06;;;5.92;72.69
69909;BME280;57190;47.918;8.112;2022-12-24T03:58:43;90632.38;;;5.92;72.28
69909;BME280;57190;47.918;8.112;2022-12-24T04:01:08;90625.00;;;5.94;72.06
69909;BME280;57190;47.918;8.112;2022-12-24T04:03:34;90646.19;;;5.94;72.06
69909;BME280;57190;47.918;8.112;2022-12-24T04:06:07;90645.47;;;5.98;72.51
69909;BME280;57190;47.918;8.112;2022-12-24T04:08:34;90657.09;;;5.97;72.26
69909;BME280;57190;47.918;8.112;2022-12-24T04:11:00;90655.81;;;6.00;72.32
69909;BME280;57190;47.918;8.112;2022-12-24T04:13:27;90663.28;;;6.03;72.13
69909;BME280;57190;47.918;8.112;2022-12-24T04:16:13;90670.72;;;6.06;71.76
69909;BME280;57190;47.918;8.112;2022-12-24T04:18:39;90669.53;;;6.14;71.86
69909;BME280;57190;47.918;8.112;2022-12-24T04:21:06;90685.56;;;6.07;72.59
69909;BME280;57190;47.918;8.112;2022-12-24T04:23:33;90668.72;;;6.13;72.49
69909;BME280;57190;47.918;8.112;2022-12-24T04:26:00;90665.28;;;6.13;72.20
69909;BME280;57190;47.918;8.112;2022-12-24T04:28:28;90681.16;;;6.13;72.51
69909;BME280;57190;47.918;8.112;2022-12-24T04:31:01;90675.06;;;6.12;72.98
69909;BME280;57190;47.918;8.112;2022-12-24T04:33:27;90664.47;;;6.12;72.13
69909;BME280;57190;47.918;8.112;2022-12-24T04:35:53;90664.41;;;6.07;73.24
69909;BME280;57190;47.918;8.112;2022-12-24T04:38:19;90659.09;;;6.07;72.99
69909;BME280;57190;47.918;8.112;2022-12-24T04:40:45;90673.06;;;6.03;73.43
69909;BME280;57190;47.918;8.112;2022-12-24T04:43:10;90682.38;;;6.05;72.82
69909;BME280;57190;47.918;8.112;2022-12-24T04:45:36;90685.09;;;6.10;73.21
69909;BME280;57190;47.918;8.112;2022-12-24T04:48:01;90679.81;;;6.10;72.17
69909;BME280;57190;47.918;8.112;2022-12-24T04:50:27;90683.19;;;6.06;73.01
69909;BME280;57190;47.918;8.112;2022-12-24T04:52:52;90683.25;;;6.11;73.25
69909;BME280;57190;47.918;8.112;2022-12-24T04:55:17;90690.19;;;6.17;72.16
69909;BME280;57190;47.918;8.112;2022-12-24T04:57:43;90689.09;;;6.13;71.95
69909;BME280;57190;47.918;8.112;2022-12-24T05:00:10;90684.28;;;6.10;73.32
69909;BME280;57190;47.918;8.112;2022-12-24T05:02:36;90676.91;;;6.12;72.86
69909;BME280;57190;47.918;8.112;2022-12-24T05:05:01;90674.25;;;6.12;72.83
69909;BME280;57190;47.918;8.112;2022-12-24T05:07:27;90679.25;;;6.08;72.83
69909;BME280;57190;47.918;8.112;2022-12-24T05:09:53;90689.66;;;6.15;73.19
69909;BME280;57190;47.918;8.112;2022-12-24T05:12:18;90682.94;;;6.07;74.06
69909;BME280;57190;47.918;8.112;2022-12-24T05:14:44;90671.78;;;6.05;73.57
69909;BME280;57190;47.918;8.112;2022-12-24T05:17:09;90664.00;;;5.98;74.55
69909;BME280;57190;47.918;8.112;2022-12-24T05:19:35;90676.91;;;5.95;74.80
69909;BME280;57190;47.918;8.112;2022-12-24T05:22:00;90662.88;;;5.94;75.47
69909;BME280;57190;47.918;8.112;2022-12-24T05:24:44;90673.22;;;5.96;74.49
69909;BME280;57190;47.918;8.112;2022-12-24T05:27:28;90684.34;;;5.98;74.48
69909;BME280;57190;47.918;8.112;2022-12-24T05:29:54;90683.34;;;5.99;75.23
69909;BME280;57190;47.918;8.112;2022-12-24T05:32:19;90687.81;;;5.98;75.04
69909;BME280;57190;47.918;8.112;2022-12-24T05:34:45;90689.59;;;5.93;75.27
69909;BME280;57190;47.918;8.112;2022-12-24T05:37:10;90692.41;;;5.86;76.05
69909;BME280;57190;47.918;8.112;2022-12-24T05:39:36;90693.22;;;5.87;75.88
69909;BME280;57190;47.918;8.112;2022-12-24T05:42:01;90702.19;;;5.86;75.86
69909;BME280;57190;47.918;8.112;2022-12-24T05:44:27;90705.94;;;5.90;75.56
69909;BME280;57190;47.918;8.112;2022-12-24T05:46:52;90719.38;;;5.83;74.94
69909;BME280;57190;47.918;8.112;2022-12-24T05:49:18;90707.66;;;5.79;75.24
69909;BME280;57190;47.918;8.112;2022-12-24T05:51:43;90689.69;;;5.81;75.43
69909;BME280;57190;47.918;8.112;2022-12-24T05:54:09;90696.03;;;5.80;75.45
69909;BME280;57190;47.918;8.112;2022-12-24T05:56:34;90697.53;;;5.76;75.42
69909;BME280;57190;47.918;8.112;2022-12-24T05:59:00;90683.75;;;5.74;75.38
69909;BME280;57190;47.918;8.112;2022-12-24T06:01:26;90682.16;;;5.73;76.05
69909;BME280;57190;47.918;8.112;2022-12-24T06:03:52;90678.69;;;5.72;75.70
69909;BME280;57190;47.918;8.112;2022-12-24T06:06:20;90685.69;;;5.78;75.43
69909;BME280;57190;47.918;8.112;2022-12-24T06:08:47;90686.94;;;5.76;75.77
69909;BME280;57190;47.918;8.112;2022-12-24T06:11:14;90690.16;;;5.78;75.54
69909;BME280;57190;47.918;8.112;2022-12-24T06:13:41;90706.28;;;5.76;75.79
69909;BME280;57190;47.918;8.112;2022-12-24T06:16:10;90717.59;;;5.72;76.28
69909;BME280;57190;47.918;8.112;2022-12-24T06:18:36;90714.63;;;5.68;76.85
69909;BME280;57190;47.918;8.112;2022-12-24T06:21:02;90724.97;;;5.70;76.53
69909;BME280;57190;47.918;8.112;2022-12-24T06:23:30;90712.00;;;5.68;76.91
69909;BME280;57190;47.918;8.112;2022-12-24T06:25:57;90699.31;;;5.70;76.29
69909;BME280;57190;47.918;8.112;2022-12-24T06:28:23;90701.41;;;5.68;77.10
69909;BME280;57190;47.918;8.112;2022-12-24T06:30:49;90702.75;;;5.71;76.01
69909;BME280;57190;47.918;8.112;2022-12-24T06:33:16;90717.59;;;5.72;76.49
69909;BME280;57190;47.918;8.112;2022-12-24T06:35:43;90731.09;;;5.70;76.28
69909;BME280;57190;47.918;8.112;2022-12-24T06:38:09;90718.63;;;5.71;75.88
69909;BME280;57190;47.918;8.112;2022-12-24T06:40:37;90711.84;;;5.75;75.80
69909;BME280;57190;47.918;8.112;2022-12-24T06:43:02;90727.22;;;5.78;75.20
69909;BME280;57190;47.918;8.112;2022-12-24T06:45:28;90695.72;;;5.76;76.08
69909;BME280;57190;47.918;8.112;2022-12-24T06:47:53;90687.81;;;5.81;74.82
69909;BME280;57190;47.918;8.112;2022-12-24T06:50:19;90700.91;;;5.71;76.50
69909;BME280;57190;47.918;8.112;2022-12-24T06:52:44;90691.59;;;5.69;75.57
69909;BME280;57190;47.918;8.112;2022-12-24T06:55:10;90680.06;;;5.75;76.08
69909;BME280;57190;47.918;8.112;2022-12-24T06:57:35;90681.03;;;5.69;76.29
69909;BME280;57190;47.918;8.112;2022-12-24T07:00:01;90679.19;;;5.69;76.32
69909;BME280;57190;47.918;8.112;2022-12-24T07:02:26;90667.06;;;5.73;75.75
69909;BME280;57190;47.918;8.112;2022-12-24T07:04:52;90677.19;;;5.76;75.72
69909;BME280;57190;47.918;8.112;2022-12-24T07:07:17;90683.66;;;5.69;75.81
69909;BME280;57190;47.918;8.112;2022-12-24T07:09:42;90681.59;;;5.71;75.31
69909;BME280;57190;47.918;8.112;2022-12-24T07:12:08;90675.00;;;5.73;75.49
69909;BME280;57190;47.918;8.112;2022-12-24T07:14:33;90684.88;;;5.78;74.70
69909;BME280;57190;47.918;8.112;2022-12-24T07:16:59;90688.66;;;5.82;74.18
69909;BME280;57190;47.918;8.112;2022-12-24T07:19:25;90702.59;;;5.77;73.66
69909;BME280;57190;47.918;8.112;2022-12-24T07:21:50;90704.59;;;5.87;74.40
69909;BME280;57190;47.918;8.112;2022-12-24T07:24:16;90709.00;;;5.81;74.21
69909;BME280;57190;47.918;8.112;2022-12-24T07:26:41;90702.84;;;5.93;72.93
69909;BME280;57190;47.918;8.112;2022-12-24T07:29:07;90713.56;;;5.86;72.84
69909;BME280;57190;47.918;8.112;2022-12-24T07:31:32;90707.00;;;5.89;73.39
69909;BME280;57190;47.918;8.112;2022-12-24T07:33:58;90699.56;;;5.86;73.21
69909;BME280;57190;47.918;8.112;2022-12-24T07:36:23;90692.41;;;5.86;73.74
69909;BME280;57190;47.918;8.112;2022-12-24T07:38:49;90701.53;;;5.95;73.88
69909;BME280;57190;47.918;8.112;2022-12-24T07:41:15;90694.41;;;5.96;72.95
69909;BME280;57190;47.918;8.112;2022-12-24T07:43:41;90707.09;;;5.94;73.28
69909;BME280;57190;47.918;8.112;2022-12-24T07:46:07;90702.00;;;5.92;74.49
69909;BME280;57190;47.918;8.112;2022-12-24T07:48:33;90712.53;;;5.87;74.11
69909;BME280;57190;47.918;8.112;2022-12-24T07:50:59;90707.81;;;5.89;74.33
69909;BME280;57190;47.918;8.112;2022-12-24T07:53:26;90720.78;;;5.91;74.39
69909;BME280;57190;47.918;8.112;2022-12-24T07:55:52;90742.28;;;5.94;74.39
69909;BME280;57190;47.918;8.112;2022-12-24T07:58:17;90740.63;;;6.05;73.85
69909;BME280;57190;47.918;8.112;2022-12-24T08:00:43;90746.63;;;6.01;73.38
69909;BME280;57190;47.918;8.112;2022-12-24T08:03:17;90758.31;;;6.00;74.23
69909;BME280;57190;47.918;8.112;2022-12-24T08:05:43;90759.09;;;6.00;73.83
69909;BME280;57190;47.918;8.112;2022-12-24T08:08:09;90746.78;;;5.94;74.72
69909;BME280;57190;47.918;8.112;2022-12-24T08:10:40;90746.78;;;5.94;75.26
69909;BME280;57190;47.918;8.112;2022-12-24T08:13:06;90748.63;;;5.93;75.36
69909;BME280;57190;47.918;8.112;2022-12-24T08:15:32;90752.41;;;5.97;75.10
69909;BME280;57190;47.918;8.112;2022-12-24T08:17:57;90753.78;;;6.00;75.82
69909;BME280;57190;47.918;8.112;2022-12-24T08:20:23;90764.69;;;6.04;75.21
69909;BME280;57190;47.918;8.112;2022-12-24T08:22:48;90756.75;;;6.04;75.16
69909;BME280;57190;47.918;8.112;2022-12-24T08:25:14;90763.09;;;6.03;75.67
69909;BME280;57190;47.918;8.112;2022-12-24T08:27:39;90764.28;;;6.12;75.63
69909;BME280;57190;47.918;8.112;2022-12-24T08:30:05;90760.59;;;6.13;75.66
69909;BME280;57190;47.918;8.112;2022-12-24T08:32:32;90759.88;;;6.18;75.90
69909;BME280;57190;47.918;8.112;2022-12-24T08:34:57;90771.34;;;6.23;76.28
69909;BME280;57190;47.918;8.112;2022-12-24T08:37:23;90775.13;;;6.27;76.39
69909;BME280;57190;47.918;8.112;2022-12-24T08:39:48;90772.72;;;6.26;76.77
69909;BME280;57190;47.918;8.112;2022-12-24T08:42:14;90789.50;;;6.32;76.49
69909;BME280;57190;47.918;8.112;2022-12-24T08:44:39;90785.06;;;6.37;76.42
69909;BME280;57190;47.918;8.112;2022-12-24T08:47:04;90775.56;;;6.41;76.06
69909;BME280;57190;47.918;8.112;2022-12-24T08:49:30;90770.84;;;6.43;76.61
69909;BME280;57190;47.918;8.112;2022-12-24T08:51:55;90781.69;;;6.42;77.17
69909;BME280;57190;47.918;8.112;2022-12-24T08:54:22;90770.84;;;6.43;76.81
69909;BME280;57190;47.918;8.112;2022-12-24T08:56:49;90777.50;;;6.46;76.13
69909;BME280;57190;47.918;8.112;2022-12-24T08:59:15;90775.16;;;6.50;76.52
69909;BME280;57190;47.918;8.112;2022-12-24T09:01:40;90792.34;;;6.47;75.81
69909;BME280;57190;47.918;8.112;2022-12-24T09:04:05;90800.38;;;6.52;76.30
69909;BME280;57190;47.918;8.112;2022-12-24T09:06:31;90805.44;;;6.54;76.27
69909;BME280;57190;47.918;8.112;2022-12-24T09:08:57;90802.28;;;6.57;76.44
69909;BME280;57190;47.918;8.112;2022-12-24T09:11:23;90815.94;;;6.66;76.04
69909;BME280;57190;47.918;8.112;2022-12-24T09:13:48;90821.47;;;6.64;75.38
69909;BME280;57190;47.918;8.112;2022-12-24T09:16:14;90832.56;;;6.61;75.73
69909;BME280;57190;47.918;8.112;2022-12-24T09:18:40;90828.06;;;6.61;75.76
69909;BME280;57190;47.918;8.112;2022-12-24T09:21:08;90829.09;;;6.60;76.08
69909;BME280;57190;47.918;8.112;2022-12-24T09:23:37;90834.97;;;6.63;76.30
69909;BME280;57190;47.918;8.112;2022-12-24T09:26:26;90832.63;;;6.66;75.32
69909;BME280;57190;47.918;8.112;2022-12-24T09:28:51;90830.38;;;6.75;75.57
69909;BME280;57190;47.918;8.112;2022-12-24T09:31:18;90847.97;;;6.81;75.33
69909;BME280;57190;47.918;8.112;2022-12-24T09:33:45;90856.22;;;6.85;75.15
69909;BME280;57190;47.918;8.112;2022-12-24T09:36:13;90855.50;;;6.89;75.37
69909;BME280;57190;47.918;8.112;2022-12-24T09:38:39;90861.09;;;6.93;75.79
69909;BME280;57190;47.918;8.112;2022-12-24T09:43:54;90857.47;;;6.99;74.72
69909;BME280;57190;47.918;8.112;2022-12-24T09:46:24;90854.09;;;7.04;74.26
69909;BME280;57190;47.918;8.112;2022-12-24T09:48:56;90862.13;;;7.09;74.00
69909;BME280;57190;47.918;8.112;2022-12-24T09:51:34;90868.69;;;7.06;73.70
69909;BME280;57190;47.918;8.112;2022-12-24T09:56:30;90874.72;;;7.02;73.00
69909;BME280;57190;47.918;8.112;2022-12-24T09:59:01;90880.59;;;7.04;73.50
69909;BME280;57190;47.918;8.112;2022-12-24T10:01:29;90883.34;;;7.09;73.35
69909;BME280;57190;47.918;8.112;2022-12-24T10:04:16;90869.41;;;7.19;72.45
69909;BME280;57190;47.918;8.112;2022-12-24T10:07:06;90859.72;;;7.30;72.10
69909;BME280;57190;47.918;8.112;2022-12-24T10:09:47;90851.44;;;7.26;71.43
69909;BME280;57190;47.918;8.112;2022-12-24T10:15:18;90853.34;;;7.31;70.74
69909;BME280;57190;47.918;8.112;2022-12-24T10:29:12;90856.78;;;7.53;70.41
69909;BME280;57190;47.918;8.112;2022-12-24T10:31:54;90867.72;;;7.57;71.09
69909;BME280;57190;47.918;8.112;2022-12-24T10:34:24;90868.22;;;7.54;70.62
69909;BME280;57190;47.918;8.112;2022-12-24T10:36:53;90857.63;;;7.54;70.88
69909;BME280;57190;47.918;8.112;2022-12-24T10:39:23;90858.41;;;7.54;71.22
69909;BME280;57190;47.918;8.112;2022-12-24T10:41:52;90859.22;;;7.55;71.15
69909;BME280;57190;47.918;8.112;2022-12-24T10:44:21;90858.09;;;7.51;70.92
69909;BME280;57190;47.918;8.112;2022-12-24T10:46:48;90861.78;;;7.50;70.50
69909;BME280;57190;47.918;8.112;2022-12-24T10:49:24;90869.19;;;7.48;71.37
69909;BME280;57190;47.918;8.112;2022-12-24T10:51:52;90868.09;;;7.44;71.63
69909;BME280;57190;47.918;8.112;2022-12-24T10:54:22;90874.94;;;7.39;71.41
69909;BME280;57190;47.918;8.112;2022-12-24T10:56:50;90870.44;;;7.40;71.39
69909;BME280;57190;47.918;8.112;2022-12-24T10:59:24;90883.72;;;7.40;70.13
69909;BME280;57190;47.918;8.112;2022-12-24T11:01:50;90870.56;;;7.50;70.02
69909;BME280;57190;47.918;8.112;2022-12-24T11:04:30;90875.16;;;7.55;69.87
69909;BME280;57190;47.918;8.112;2022-12-24T11:06:59;90875.94;;;7.55;69.59
69909;BME280;57190;47.918;8.112;2022-12-24T11:09:29;90891.59;;;7.57;69.90
69909;BME280;57190;47.918;8.112;2022-12-24T11:11:57;90892.97;;;7.60;70.03
69909;BME280;57190;47.918;8.112;2022-12-24T11:14:24;90886.84;;;7.59;69.55
69909;BME280;57190;47.918;8.112;2022-12-24T11:16:53;90902.00;;;7.59;69.74
69909;BME280;57190;47.918;8.112;2022-12-24T11:19:33;90903.28;;;7.56;69.58
69909;BME280;57190;47.918;8.112;2022-12-24T11:22:05;90888.16;;;7.57;69.89
69909;BME280;57190;47.918;8.112;2022-12-24T11:24:33;90890.56;;;7.58;69.69
69909;BME280;57190;47.918;8.112;2022-12-24T11:27:23;90883.31;;;7.76;69.77
69909;BME280;57190;47.918;8.112;2022-12-24T11:29:50;90868.81;;;7.83;69.16
69909;BME280;57190;47.918;8.112;2022-12-24T11:32:20;90875.81;;;7.95;69.11
69909;BME280;57190;47.918;8.112;2022-12-24T11:34:46;90885.03;;;8.14;69.80
69909;BME280;57190;47.918;8.112;2022-12-24T11:37:22;90875.69;;;8.39;68.88
69909;BME280;57190;47.918;8.112;2022-12-24T11:39:52;90870.16;;;8.46;68.51
69909;BME280;57190;47.918;8.112;2022-12-24T11:42:34;90875.06;;;8.54;67.53
69909;BME280;57190;47.918;8.112;2022-12-24T11:45:05;90863.59;;;8.54;67.00
69909;BME280;57190;47.918;8.112;2022-12-24T11:47:34;90871.09;;;8.62;66.88
69909;BME280;57190;47.918;8.112;2022-12-24T11:50:32;90871.09;;;8.62;67.18
69909;BME280;57190;47.918;8.112;2022-12-24T12:00:39;90852.78;;;8.65;65.04
69909;BME280;57190;47.918;8.112;2022-12-24T12:05:51;90851.13;;;8.54;65.46
69909;BME280;57190;47.918;8.112;2022-12-24T12:08:17;90850.28;;;8.48;65.73
69909;BME280;57190;47.918;8.112;2022-12-24T12:10:45;90851.28;;;8.42;65.34
69909;BME280;57190;47.918;8.112;2022-12-24T12:13:14;90841.88;;;8.29;65.63
69909;BME280;57190;47.918;8.112;2022-12-24T12:16:21;90848.16;;;8.23;65.91
69909;BME280;57190;47.918;8.112;2022-12-24T12:19:08;90846.59;;;8.22;64.59
69909;BME280;57190;47.918;8.112;2022-12-24T12:21:41;90847.34;;;8.17;65.11
69909;BME280;57190;47.918;8.112;2022-12-24T12:24:28;90853.66;;;8.11;65.49
69909;BME280;57190;47.918;8.112;2022-12-24T12:27:47;90853.81;;;7.99;65.14
69909;BME280;57190;47.918;8.112;2022-12-24T12:30:20;90851.81;;;8.12;65.12
69909;BME280;57190;47.918;8.112;2022-12-24T12:33:08;90853.19;;;8.19;64.53
69909;BME280;57190;47.918;8.112;2022-12-24T12:35:38;90856.19;;;8.56;63.80
69909;BME280;57190;47.918;8.112;2022-12-24T12:38:08;90860.00;;;8.38;63.98
69909;BME280;57190;47.918;8.112;2022-12-24T12:43:37;90850.25;;;8.16;64.37
69909;BME280;57190;47.918;8.112;2022-12-24T12:48:59;90854.00;;;8.20;64.87
69909;BME280;57190;47.918;8.112;2022-12-24T12:51:57;90847.41;;;8.28;63.95
69909;BME280;57190;47.918;8.112;2022-12-24T12:56:57;90844.63;;;8.12;63.87
69909;BME280;57190;47.918;8.112;2022-12-24T13:13:35;90854.41;;;8.07;64.87
69909;BME280;57190;47.918;8.112;2022-12-24T13:18:53;90852.28;;;8.03;64.70
69909;BME280;57190;47.918;8.112;2022-12-24T13:21:25;90849.72;;;8.14;64.53
69909;BME280;57190;47.918;8.112;2022-12-24T13:24:17;90852.28;;;8.03;65.02
69909;BME280;57190;47.918;8.112;2022-12-24T13:27:31;90850.09;;;8.00;65.10
69909;BME280;57190;47.918;8.112;2022-12-24T13:35:35;90839.91;;;7.87;65.32
69909;BME280;57190;47.918;8.112;2022-12-24T13:37:35;90842.47;;;7.82;65.76
69909;BME280;57190;47.918;8.112;2022-12-24T13:50:42;90829.13;;;7.71;65.78
69909;BME280;57190;47.918;8.112;2022-12-24T13:58:27;90825.28;;;7.84;65.38
69909;BME280;57190;47.918;8.112;2022-12-24T14:00:55;90835.34;;;7.82;65.83
69909;BME280;57190;47.918;8.112;2022-12-24T14:03:27;90833.25;;;7.84;66.03
69909;BME280;57190;47.918;8.112;2022-12-24T14:06:01;90840.69;;;7.87;66.24
69909;BME280;57190;47.918;8.112;2022-12-24T14:08:42;90844.38;;;7.86;65.89
69909;BME280;57190;47.918;8.112;2022-12-24T14:16:16;90849.66;;;7.81;66.34
69909;BME280;57190;47.918;8.112;2022-12-24T14:18:45;90847.75;;;7.77;66.86
69909;BME280;57190;47.918;8.112;2022-12-24T14:21:19;90854.38;;;7.74;66.95
69909;BME280;57190;47.918;8.112;2022-12-24T14:24:20;90850.28;;;7.66;66.88
69909;BME280;57190;47.918;8.112;2022-12-24T14:26:51;90847.09;;;7.64;67.74
69909;BME280;57190;47.918;8.112;2022-12-24T14:31:54;90845.00;;;7.66;66.80
69909;BME280;57190;47.918;8.112;2022-12-24T14:34:20;90839.44;;;7.68;67.00
69909;BME280;57190;47.918;8.112;2022-12-24T14:36:47;90856.97;;;7.69;66.91
69909;BME280;57190;47.918;8.112;2022-12-24T14:39:28;90845.50;;;7.63;67.48
69909;BME280;57190;47.918;8.112;2022-12-24T14:47:46;90845.25;;;7.43;68.34
69909;BME280;57190;47.918;8.112;2022-12-24T14:50:32;90849.22;;;7.40;68.45
69909;BME280;57190;47.918;8.112;2022-12-24T14:55:55;90853.84;;;7.28;69.53
69909;BME280;57190;47.918;8.112;2022-12-24T15:00:59;90846.63;;;7.23;70.47
69909;BME280;57190;47.918;8.112;2022-12-24T15:03:28;90843.44;;;7.21;70.42
69909;BME280;57190;47.918;8.112;2022-12-24T15:06:01;90845.28;;;7.20;70.34
69909;BME280;57190;47.918;8.112;2022-12-24T15:08:31;90853.78;;;7.22;70.19
69909;BME280;57190;47.918;8.112;2022-12-24T15:11:03;90854.03;;;7.21;70.31
69909;BME280;57190;47.918;8.112;2022-12-24T15:16:05;90868.22;;;7.10;71.64
69909;BME280;57190;47.918;8.112;2022-12-24T15:18:33;90862.28;;;7.02;71.66
69909;BME280;57190;47.918;8.112;2022-12-24T15:21:02;90855.06;;;6.98;72.26
69909;BME280;57190;47.918;8.112;2022-12-24T15:23:35;90848.94;;;6.97;71.95